sensor_id;sensor_type;location;lat;lon;timestamp;temperature;humidity
32187;DHT22;18686;53.084;8.872;2023-04-03T00:01:18;1.50;99.90
32187;DHT22;18686;53.084;8.872;2023-04-03T00:03:46;1.40;99.90
32187;DHT22;18686;53.084;8.872;2023-04-03T00:06:14;1.40;99.90
32187;DHT22;18686;53.084;8.872;2023-04-03T00:08:43;1.30;99.90
32187;DHT22;18686;53.084;8.872;2023-04-03T00:11:11;1.20;99.90
32187;DHT22;18686;53.084;8.872;2023-04-03T00:13:40;1.20;99.90
32187;DHT22;18686;53.084;8.872;2023-04-03T00:16:11;1.20;99.90
32187;DHT22;18686;53.084;8.872;2023-04-03T00:18:39;1.10;99.90
32187;DHT22;18686;53.084;8.872;2023-04-03T00:21:09;1.00;99.90
32187;DHT22;18686;53.084;8.872;2023-04-03T00:23:37;1.00;99.90
32187;DHT22;18686;53.084;8.872;2023-04-03T00:26:06;1.00;99.90
32187;DHT22;18686;53.084;8.872;2023-04-03T00:28:34;0.90;99.90
32187;DHT22;18686;53.084;8.872;2023-04-03T00:31:02;0.90;99.90
32187;DHT22;18686;53.084;8.872;2023-04-03T00:33:32;0.80;99.90
32187;DHT22;18686;53.084;8.872;2023-04-03T00:36:05;0.80;99.90
32187;DHT22;18686;53.084;8.872;2023-04-03T00:38:34;0.80;99.90
32187;DHT22;18686;53.084;8.872;2023-04-03T00:41:03;0.80;99.90
32187;DHT22;18686;53.084;8.872;2023-04-03T00:43:31;0.80;99.90
32187;DHT22;18686;53.084;8.872;2023-04-03T00:46:00;0.70;99.90
32187;DHT22;18686;53.084;8.872;2023-04-03T00:48:32;0.80;99.90
32187;DHT22;18686;53.084;8.872;2023-04-03T00:51:02;0.70;99.90
32187;DHT22;18686;53.084;8.872;2023-04-03T00:53:34;0.70;99.90
32187;DHT22;18686;53.084;8.872;2023-04-03T00:56:06;0.70;99.90
32187;DHT22;18686;53.084;8.872;2023-04-03T00:58:41;0.80;99.90
32187;DHT22;18686;53.084;8.872;2023-04-03T01:01:13;0.80;99.90
32187;DHT22;18686;53.084;8.872;2023-04-03T01:03:43;0.70;99.90
32187;DHT22;18686;53.084;8.872;2023-04-03T01:06:13;0.70;99.90
32187;DHT22;18686;53.084;8.872;2023-04-03T01:08:48;0.70;99.90
32187;DHT22;18686;53.084;8.872;2023-04-03T01:11:17;0.70;99.90
32187;DHT22;18686;53.084;8.872;2023-04-03T01:13:48;0.70;99.90
32187;DHT22;18686;53.084;8.872;2023-04-03T01:16:17;0.70;99.90
32187;DHT22;18686;53.084;8.872;2023-04-03T01:18:48;0.70;99.90
32187;DHT22;18686;53.084;8.872;2023-04-03T01:21:48;0.70;99.90
32187;DHT22;18686;53.084;8.872;2023-04-03T01:24:30;0.80;99.90
32187;DHT22;18686;53.084;8.872;2023-04-03T01:27:05;0.80;99.90
32187;DHT22;18686;53.084;8.872;2023-04-03T01:29:33;0.80;99.90
32187;DHT22;18686;53.084;8.872;2023-04-03T01:32:03;0.90;99.90
32187;DHT22;18686;53.084;8.872;2023-04-03T01:34:32;0.90;99.90
32187;DHT22;18686;53.084;8.872;2023-04-03T01:37:01;0.90;99.90
32187;DHT22;18686;53.084;8.872;2023-04-03T01:39:29;1.00;99.90
32187;DHT22;18686;53.084;8.872;2023-04-03T01:41:57;1.00;99.90
32187;DHT22;18686;53.084;8.872;2023-04-03T01:44:30;1.00;99.90
32187;DHT22;18686;53.084;8.872;2023-04-03T01:46:59;1.00;99.90
32187;DHT22;18686;53.084;8.872;2023-04-03T01:49:30;1.00;99.90
32187;DHT22;18686;53.084;8.872;2023-04-03T01:51:58;0.90;99.90
32187;DHT22;18686;53.084;8.872;2023-04-03T01:54:26;0.90;99.90
32187;DHT22;18686;53.084;8.872;2023-04-03T01:56:54;0.80;99.90
32187;DHT22;18686;53.084;8.872;2023-04-03T01:59:23;0.80;99.90
32187;DHT22;18686;53.084;8.872;2023-04-03T02:01:51;0.80;99.90
32187;DHT22;18686;53.084;8.872;2023-04-03T02:04:20;0.70;99.90
32187;DHT22;18686;53.084;8.872;2023-04-03T02:06:49;0.70;99.90
32187;DHT22;18686;53.084;8.872;2023-04-03T02:09:17;0.60;99.90
32187;DHT22;18686;53.084;8.872;2023-04-03T02:11:45;0.60;99.90
32187;DHT22;18686;53.084;8.872;2023-04-03T02:14:14;0.60;99.90
32187;DHT22;18686;53.084;8.872;2023-04-03T02:16:42;0.60;99.90
32187;DHT22;18686;53.084;8.872;2023-04-03T02:19:10;0.60;99.90
32187;DHT22;18686;53.084;8.872;2023-04-03T02:21:39;0.50;99.90
32187;DHT22;18686;53.084;8.872;2023-04-03T02:24:08;0.50;99.90
32187;DHT22;18686;53.084;8.872;2023-04-03T02:26:37;0.50;99.90
32187;DHT22;18686;53.084;8.872;2023-04-03T02:29:05;0.40;99.90
32187;DHT22;18686;53.084;8.872;2023-04-03T02:31:34;0.40;99.90
32187;DHT22;18686;53.084;8.872;2023-04-03T02:34:04;0.40;99.90
32187;DHT22;18686;53.084;8.872;2023-04-03T02:36:34;0.30;99.90
32187;DHT22;18686;53.084;8.872;2023-04-03T02:39:05;0.30;99.90
32187;DHT22;18686;53.084;8.872;2023-04-03T02:41:36;0.30;99.90
32187;DHT22;18686;53.084;8.872;2023-04-03T02:44:11;0.30;99.90
32187;DHT22;18686;53.084;8.872;2023-04-03T02:46:39;0.30;99.90
32187;DHT22;18686;53.084;8.872;2023-04-03T02:49:07;0.30;99.90
32187;DHT22;18686;53.084;8.872;2023-04-03T02:51:36;0.30;99.90
32187;DHT22;18686;53.084;8.872;2023-04-03T02:54:04;0.20;99.90
32187;DHT22;18686;53.084;8.872;2023-04-03T02:56:36;0.20;99.90
32187;DHT22;18686;53.084;8.872;2023-04-03T02:59:05;0.20;99.90
32187;DHT22;18686;53.084;8.872;2023-04-03T03:01:36;0.20;99.90
32187;DHT22;18686;53.084;8.872;2023-04-03T03:04:04;0.20;99.90
32187;DHT22;18686;53.084;8.872;2023-04-03T03:06:32;0.20;99.90
32187;DHT22;18686;53.084;8.872;2023-04-03T03:09:00;0.10;99.90
32187;DHT22;18686;53.084;8.872;2023-04-03T03:11:28;0.10;99.90
32187;DHT22;18686;53.084;8.872;2023-04-03T03:13:58;0.10;99.90
32187;DHT22;18686;53.084;8.872;2023-04-03T03:16:26;0.10;99.90
32187;DHT22;18686;53.084;8.872;2023-04-03T03:18:56;0.10;99.90
32187;DHT22;18686;53.084;8.872;2023-04-03T03:21:25;0.00;99.90
32187;DHT22;18686;53.084;8.872;2023-04-03T03:23:53;0.00;99.90
32187;DHT22;18686;53.084;8.872;2023-04-03T03:26:21;0.00;99.90
32187;DHT22;18686;53.084;8.872;2023-04-03T03:28:50;0.00;99.90
32187;DHT22;18686;53.084;8.872;2023-04-03T03:31:20;0.00;99.90
32187;DHT22;18686;53.084;8.872;2023-04-03T03:33:48;0.00;99.90
32187;DHT22;18686;53.084;8.872;2023-04-03T03:36:16;0.00;99.90
32187;DHT22;18686;53.084;8.872;2023-04-03T03:38:44;0.00;99.90
32187;DHT22;18686;53.084;8.872;2023-04-03T03:41:13;-0.10;99.90
32187;DHT22;18686;53.084;8.872;2023-04-03T03:43:43;0.00;99.90
32187;DHT22;18686;53.084;8.872;2023-04-03T03:46:13;0.00;99.90
32187;DHT22;18686;53.084;8.872;2023-04-03T03:48:43;0.00;99.90
32187;DHT22;18686;53.084;8.872;2023-04-03T03:51:11;0.00;99.90
32187;DHT22;18686;53.084;8.872;2023-04-03T03:53:40;0.00;99.90
32187;DHT22;18686;53.084;8.872;2023-04-03T03:56:12;0.00;99.90
32187;DHT22;18686;53.084;8.872;2023-04-03T03:58:42;0.00;99.90
32187;DHT22;18686;53.084;8.872;2023-04-03T04:01:10;0.00;99.90
32187;DHT22;18686;53.084;8.872;2023-04-03T04:03:44;0.00;99.90
32187;DHT22;18686;53.084;8.872;2023-04-03T04:06:16;0.00;99.90
32187;DHT22;18686;53.084;8.872;2023-04-03T04:08:45;0.00;99.90
32187;DHT22;18686;53.084;8.872;2023-04-03T04:11:14;0.00;99.90
32187;DHT22;18686;53.084;8.872;2023-04-03T04:13:44;0.00;99.90
32187;DHT22;18686;53.084;8.872;2023-04-03T04:16:15;0.00;99.90
32187;DHT22;18686;53.084;8.872;2023-04-03T04:18:44;0.00;99.90
32187;DHT22;18686;53.084;8.872;2023-04-03T04:21:13;0.00;99.90
32187;DHT22;18686;53.084;8.872;2023-04-03T04:23:42;0.00;99.90
32187;DHT22;18686;53.084;8.872;2023-04-03T04:26:10;0.00;99.90
32187;DHT22;18686;53.084;8.872;2023-04-03T04:28:39;0.00;99.90
32187;DHT22;18686;53.084;8.872;2023-04-03T04:31:07;0.00;99.90
32187;DHT22;18686;53.084;8.872;2023-04-03T04:33:36;0.00;99.90
32187;DHT22;18686;53.084;8.872;2023-04-03T04:36:07;0.00;99.90
32187;DHT22;18686;53.084;8.872;2023-04-03T04:38:37;0.00;99.90
32187;DHT22;18686;53.084;8.872;2023-04-03T04:41:06;0.00;99.90
32187;DHT22;18686;53.084;8.872;2023-04-03T04:43:35;0.00;99.90
32187;DHT22;18686;53.084;8.872;2023-04-03T04:46:05;0.00;99.90
32187;DHT22;18686;53.084;8.872;2023-04-03T04:48:39;0.00;99.90
32187;DHT22;18686;53.084;8.872;2023-04-03T04:51:10;0.00;99.90
32187;DHT22;18686;53.084;8.872;2023-04-03T04:53:39;0.00;99.90
32187;DHT22;18686;53.084;8.872;2023-04-03T04:56:09;0.00;99.90
32187;DHT22;18686;53.084;8.872;2023-04-03T04:58:39;0.00;99.90
32187;DHT22;18686;53.084;8.872;2023-04-03T05:01:09;0.00;99.90
32187;DHT22;18686;53.084;8.872;2023-04-03T05:03:47;0.00;99.90
32187;DHT22;18686;53.084;8.872;2023-04-03T05:06:18;-0.10;99.90
32187;DHT22;18686;53.084;8.872;2023-04-03T05:08:46;0.00;99.90
32187;DHT22;18686;53.084;8.872;2023-04-03T05:11:16;0.00;99.90
32187;DHT22;18686;53.084;8.872;2023-04-03T05:13:46;0.00;99.90
32187;DHT22;18686;53.084;8.872;2023-04-03T05:16:15;0.00;99.90
32187;DHT22;18686;53.084;8.872;2023-04-03T05:18:43;-0.10;99.90
32187;DHT22;18686;53.084;8.872;2023-04-03T05:21:18;0.00;99.90
32187;DHT22;18686;53.084;8.872;2023-04-03T05:23:50;0.00;99.90
32187;DHT22;18686;53.084;8.872;2023-04-03T05:26:18;0.00;99.90
32187;DHT22;18686;53.084;8.872;2023-04-03T05:28:49;0.00;99.90
32187;DHT22;18686;53.084;8.872;2023-04-03T05:31:18;0.00;99.90
32187;DHT22;18686;53.084;8.872;2023-04-03T05:33:47;0.00;99.90
32187;DHT22;18686;53.084;8.872;2023-04-03T05:36:18;0.10;99.90
32187;DHT22;18686;53.084;8.872;2023-04-03T05:38:52;0.10;99.90
32187;DHT22;18686;53.084;8.872;2023-04-03T05:41:23;0.20;99.90
32187;DHT22;18686;53.084;8.872;2023-04-03T05:43:51;0.20;99.90
32187;DHT22;18686;53.084;8.872;2023-04-03T05:46:22;0.30;99.90
32187;DHT22;18686;53.084;8.872;2023-04-03T05:48:54;0.40;99.90
32187;DHT22;18686;53.084;8.872;2023-04-03T05:51:31;0.50;99.90
32187;DHT22;18686;53.084;8.872;2023-04-03T05:54:10;0.70;99.90
32187;DHT22;18686;53.084;8.872;2023-04-03T05:56:40;0.80;99.90
32187;DHT22;18686;53.084;8.872;2023-04-03T05:59:08;0.90;99.90
32187;DHT22;18686;53.084;8.872;2023-04-03T06:01:37;1.10;99.90
32187;DHT22;18686;53.084;8.872;2023-04-03T06:04:05;1.20;99.90
32187;DHT22;18686;53.084;8.872;2023-04-03T06:06:46;1.40;99.90
32187;DHT22;18686;53.084;8.872;2023-04-03T06:09:15;1.60;99.90
32187;DHT22;18686;53.084;8.872;2023-04-03T06:11:44;1.70;99.90
32187;DHT22;18686;53.084;8.872;2023-04-03T06:14:13;1.90;99.90
32187;DHT22;18686;53.084;8.872;2023-04-03T06:16:42;2.10;99.90
32187;DHT22;18686;53.084;8.872;2023-04-03T06:19:11;2.30;99.90
32187;DHT22;18686;53.084;8.872;2023-04-03T06:21:46;2.50;99.90
32187;DHT22;18686;53.084;8.872;2023-04-03T06:24:16;2.60;99.90
32187;DHT22;18686;53.084;8.872;2023-04-03T06:26:44;2.80;99.90
32187;DHT22;18686;53.084;8.872;2023-04-03T06:29:13;3.00;99.90
32187;DHT22;18686;53.084;8.872;2023-04-03T06:31:41;3.20;99.90
32187;DHT22;18686;53.084;8.872;2023-04-03T06:34:09;3.50;99.90
32187;DHT22;18686;53.084;8.872;2023-04-03T06:36:38;3.60;99.90
32187;DHT22;18686;53.084;8.872;2023-04-03T06:39:09;3.80;99.90
32187;DHT22;18686;53.084;8.872;2023-04-03T06:41:39;4.10;99.90
32187;DHT22;18686;53.084;8.872;2023-04-03T06:44:07;4.30;99.90
32187;DHT22;18686;53.084;8.872;2023-04-03T06:46:38;4.50;99.90
32187;DHT22;18686;53.084;8.872;2023-04-03T06:49:07;4.70;99.90
32187;DHT22;18686;53.084;8.872;2023-04-03T06:51:36;5.00;99.90
32187;DHT22;18686;53.084;8.872;2023-04-03T06:54:05;5.20;99.90
32187;DHT22;18686;53.084;8.872;2023-04-03T06:56:36;5.50;99.90
32187;DHT22;18686;53.084;8.872;2023-04-03T06:59:04;5.70;99.90
32187;DHT22;18686;53.084;8.872;2023-04-03T07:01:35;5.90;99.90
32187;DHT22;18686;53.084;8.872;2023-04-03T07:04:04;6.20;99.90
32187;DHT22;18686;53.084;8.872;2023-04-03T07:06:32;6.50;99.30
32187;DHT22;18686;53.084;8.872;2023-04-03T07:09:01;6.70;98.40
32187;DHT22;18686;53.084;8.872;2023-04-03T07:11:30;6.90;96.80
32187;DHT22;18686;53.084;8.872;2023-04-03T07:13:59;7.20;96.20
32187;DHT22;18686;53.084;8.872;2023-04-03T07:16:28;7.50;94.60
32187;DHT22;18686;53.084;8.872;2023-04-03T07:18:58;7.80;93.00
32187;DHT22;18686;53.084;8.872;2023-04-03T07:21:26;8.20;91.40
32187;DHT22;18686;53.084;8.872;2023-04-03T07:23:54;8.50;90.70
32187;DHT22;18686;53.084;8.872;2023-04-03T07:26:23;8.80;90.20
32187;DHT22;18686;53.084;8.872;2023-04-03T07:28:52;9.10;87.90
32187;DHT22;18686;53.084;8.872;2023-04-03T07:31:21;9.40;84.10
32187;DHT22;18686;53.084;8.872;2023-04-03T07:33:50;9.70;80.50
32187;DHT22;18686;53.084;8.872;2023-04-03T07:36:20;10.00;78.20
32187;DHT22;18686;53.084;8.872;2023-04-03T07:38:49;10.30;75.70
32187;DHT22;18686;53.084;8.872;2023-04-03T07:41:19;10.60;73.60
32187;DHT22;18686;53.084;8.872;2023-04-03T07:43:49;10.90;70.70
32187;DHT22;18686;53.084;8.872;2023-04-03T07:46:17;11.10;66.20
32187;DHT22;18686;53.084;8.872;2023-04-03T07:48:47;11.20;62.70
32187;DHT22;18686;53.084;8.872;2023-04-03T07:51:15;11.30;58.00
32187;DHT22;18686;53.084;8.872;2023-04-03T07:53:43;11.40;57.00
32187;DHT22;18686;53.084;8.872;2023-04-03T07:56:12;11.60;56.40
32187;DHT22;18686;53.084;8.872;2023-04-03T07:58:40;11.70;57.50
32187;DHT22;18686;53.084;8.872;2023-04-03T08:01:08;11.90;56.70
32187;DHT22;18686;53.084;8.872;2023-04-03T08:03:38;12.10;55.00
32187;DHT22;18686;53.084;8.872;2023-04-03T08:06:08;12.40;53.20
32187;DHT22;18686;53.084;8.872;2023-04-03T08:08:42;12.60;53.60
32187;DHT22;18686;53.084;8.872;2023-04-03T08:11:11;12.80;52.90
32187;DHT22;18686;53.084;8.872;2023-04-03T08:13:39;13.20;51.50
32187;DHT22;18686;53.084;8.872;2023-04-03T08:16:10;13.30;49.40
32187;DHT22;18686;53.084;8.872;2023-04-03T08:18:38;13.50;48.10
32187;DHT22;18686;53.084;8.872;2023-04-03T08:21:09;13.60;47.90
32187;DHT22;18686;53.084;8.872;2023-04-03T08:23:38;13.90;47.50
32187;DHT22;18686;53.084;8.872;2023-04-03T08:26:09;14.20;45.80
32187;DHT22;18686;53.084;8.872;2023-04-03T08:28:38;14.40;45.00
32187;DHT22;18686;53.084;8.872;2023-04-03T08:31:08;14.60;43.00
32187;DHT22;18686;53.084;8.872;2023-04-03T08:33:38;14.90;43.50
32187;DHT22;18686;53.084;8.872;2023-04-03T08:36:17;15.20;43.90
32187;DHT22;18686;53.084;8.872;2023-04-03T08:38:45;15.60;41.60
32187;DHT22;18686;53.084;8.872;2023-04-03T08:41:16;15.80;40.40
32187;DHT22;18686;53.084;8.872;2023-04-03T08:43:57;15.90;39.60
32187;DHT22;18686;53.084;8.872;2023-04-03T08:46:33;16.20;37.20
32187;DHT22;18686;53.084;8.872;2023-04-03T08:49:12;16.00;38.40
32187;DHT22;18686;53.084;8.872;2023-04-03T08:51:48;16.20;36.60
32187;DHT22;18686;53.084;8.872;2023-04-03T08:54:24;16.40;37.20
32187;DHT22;18686;53.084;8.872;2023-04-03T08:56:53;16.70;37.10
32187;DHT22;18686;53.084;8.872;2023-04-03T08:59:28;17.10;35.10
32187;DHT22;18686;53.084;8.872;2023-04-03T09:01:58;17.30;34.10
32187;DHT22;18686;53.084;8.872;2023-04-03T09:04:31;17.80;32.80
32187;DHT22;18686;53.084;8.872;2023-04-03T09:07:05;18.30;31.10
32187;DHT22;18686;53.084;8.872;2023-04-03T09:09:36;18.70;31.30
32187;DHT22;18686;53.084;8.872;2023-04-03T09:12:16;18.90;31.70
32187;DHT22;18686;53.084;8.872;2023-04-03T09:14:53;19.20;32.10
32187;DHT22;18686;53.084;8.872;2023-04-03T09:17:35;19.50;30.90
32187;DHT22;18686;53.084;8.872;2023-04-03T09:20:14;19.90;30.80
32187;DHT22;18686;53.084;8.872;2023-04-03T09:22:48;20.20;30.90
32187;DHT22;18686;53.084;8.872;2023-04-03T09:25:22;20.30;28.60
32187;DHT22;18686;53.084;8.872;2023-04-03T09:27:52;20.40;28.50
32187;DHT22;18686;53.084;8.872;2023-04-03T09:30:22;20.50;29.20
32187;DHT22;18686;53.084;8.872;2023-04-03T09:32:52;20.70;29.60
32187;DHT22;18686;53.084;8.872;2023-04-03T09:35:24;21.00;28.50
32187;DHT22;18686;53.084;8.872;2023-04-03T09:38:19;21.10;28.00
32187;DHT22;18686;53.084;8.872;2023-04-03T09:40:49;20.80;28.00
32187;DHT22;18686;53.084;8.872;2023-04-03T09:43:25;20.90;30.20
32187;DHT22;18686;53.084;8.872;2023-04-03T09:45:55;21.00;27.50
32187;DHT22;18686;53.084;8.872;2023-04-03T09:48:24;21.20;26.70
32187;DHT22;18686;53.084;8.872;2023-04-03T09:50:56;21.80;27.60
32187;DHT22;18686;53.084;8.872;2023-04-03T09:53:35;22.10;27.90
32187;DHT22;18686;53.084;8.872;2023-04-03T09:56:18;22.40;27.70
32187;DHT22;18686;53.084;8.872;2023-04-03T09:58:50;22.70;27.60
32187;DHT22;18686;53.084;8.872;2023-04-03T10:01:25;23.10;26.10
32187;DHT22;18686;53.084;8.872;2023-04-03T10:04:06;22.80;26.40
32187;DHT22;18686;53.084;8.872;2023-04-03T10:06:36;22.50;27.10
32187;DHT22;18686;53.084;8.872;2023-04-03T10:09:20;22.40;26.80
32187;DHT22;18686;53.084;8.872;2023-04-03T10:12:02;22.20;26.90
32187;DHT22;18686;53.084;8.872;2023-04-03T10:14:33;22.30;26.40
32187;DHT22;18686;53.084;8.872;2023-04-03T10:17:18;22.50;26.30
32187;DHT22;18686;53.084;8.872;2023-04-03T10:19:54;23.10;25.10
32187;DHT22;18686;53.084;8.872;2023-04-03T10:22:35;24.10;25.20
32187;DHT22;18686;53.084;8.872;2023-04-03T10:25:12;25.90;25.30
32187;DHT22;18686;53.084;8.872;2023-04-03T10:27:52;27.80;25.30
32187;DHT22;18686;53.084;8.872;2023-04-03T10:30:30;29.30;24.90
32187;DHT22;18686;53.084;8.872;2023-04-03T10:36:12;33.10;22.90
32187;DHT22;18686;53.084;8.872;2023-04-03T10:38:53;34.80;21.60
32187;DHT22;18686;53.084;8.872;2023-04-03T10:41:31;35.30;21.70
32187;DHT22;18686;53.084;8.872;2023-04-03T10:44:12;36.30;21.50
32187;DHT22;18686;53.084;8.872;2023-04-03T10:46:46;37.30;21.20
32187;DHT22;18686;53.084;8.872;2023-04-03T10:49:25;38.30;20.90
32187;DHT22;18686;53.084;8.872;2023-04-03T10:52:01;39.00;20.40
32187;DHT22;18686;53.084;8.872;2023-04-03T10:54:37;38.60;20.20
32187;DHT22;18686;53.084;8.872;2023-04-03T10:57:10;38.60;20.70
32187;DHT22;18686;53.084;8.872;2023-04-03T10:59:43;39.20;20.00
32187;DHT22;18686;53.084;8.872;2023-04-03T11:02:17;38.90;19.60
32187;DHT22;18686;53.084;8.872;2023-04-03T11:04:52;39.20;19.50
32187;DHT22;18686;53.084;8.872;2023-04-03T11:07:23;39.30;19.00
32187;DHT22;18686;53.084;8.872;2023-04-03T11:09:56;39.30;18.70
32187;DHT22;18686;53.084;8.872;2023-04-03T11:12:28;40.20;19.50
32187;DHT22;18686;53.084;8.872;2023-04-03T11:15:02;39.20;19.20
32187;DHT22;18686;53.084;8.872;2023-04-03T11:17:35;39.40;19.40
32187;DHT22;18686;53.084;8.872;2023-04-03T11:20:10;39.80;18.90
32187;DHT22;18686;53.084;8.872;2023-04-03T11:22:45;40.00;19.60
32187;DHT22;18686;53.084;8.872;2023-04-03T11:25:19;40.90;19.10
32187;DHT22;18686;53.084;8.872;2023-04-03T11:27:55;41.30;18.60
32187;DHT22;18686;53.084;8.872;2023-04-03T11:30:28;41.60;18.80
32187;DHT22;18686;53.084;8.872;2023-04-03T11:33:24;42.20;18.60
32187;DHT22;18686;53.084;8.872;2023-04-03T11:35:59;42.50;18.30
32187;DHT22;18686;53.084;8.872;2023-04-03T11:38:42;42.40;18.60
32187;DHT22;18686;53.084;8.872;2023-04-03T11:41:26;42.30;19.40
32187;DHT22;18686;53.084;8.872;2023-04-03T11:43:59;42.00;18.90
32187;DHT22;18686;53.084;8.872;2023-04-03T11:46:51;41.80;18.70
32187;DHT22;18686;53.084;8.872;2023-04-03T11:49:52;41.90;18.80
32187;DHT22;18686;53.084;8.872;2023-04-03T11:55:45;42.30;18.20
32187;DHT22;18686;53.084;8.872;2023-04-03T11:58:15;42.80;18.50
32187;DHT22;18686;53.084;8.872;2023-04-03T12:00:52;43.30;18.40
32187;DHT22;18686;53.084;8.872;2023-04-03T12:10:12;42.40;18.60
32187;DHT22;18686;53.084;8.872;2023-04-03T12:12:59;42.90;19.30
32187;DHT22;18686;53.084;8.872;2023-04-03T12:18:44;45.20;18.90
32187;DHT22;18686;53.084;8.872;2023-04-03T12:21:23;45.70;18.00
32187;DHT22;18686;53.084;8.872;2023-04-03T12:24:04;44.70;17.70
32187;DHT22;18686;53.084;8.872;2023-04-03T12:26:38;43.70;17.80
32187;DHT22;18686;53.084;8.872;2023-04-03T12:29:17;43.80;18.30
32187;DHT22;18686;53.084;8.872;2023-04-03T12:31:58;44.70;18.40
32187;DHT22;18686;53.084;8.872;2023-04-03T12:34:53;45.50;18.60
32187;DHT22;18686;53.084;8.872;2023-04-03T12:37:39;45.60;18.40
32187;DHT22;18686;53.084;8.872;2023-04-03T12:40:18;43.60;17.90
32187;DHT22;18686;53.084;8.872;2023-04-03T12:43:02;42.30;18.40
32187;DHT22;18686;53.084;8.872;2023-04-03T12:45:44;40.90;18.30
32187;DHT22;18686;53.084;8.872;2023-04-03T12:48:16;40.80;18.60
32187;DHT22;18686;53.084;8.872;2023-04-03T12:50:47;40.50;18.00
32187;DHT22;18686;53.084;8.872;2023-04-03T12:53:18;40.30;18.70
32187;DHT22;18686;53.084;8.872;2023-04-03T12:55:47;41.00;18.40
32187;DHT22;18686;53.084;8.872;2023-04-03T12:58:19;42.20;18.40
32187;DHT22;18686;53.084;8.872;2023-04-03T13:00:59;41.90;18.20
32187;DHT22;18686;53.084;8.872;2023-04-03T13:03:29;41.60;18.70
32187;DHT22;18686;53.084;8.872;2023-04-03T13:06:01;41.70;18.10
32187;DHT22;18686;53.084;8.872;2023-04-03T13:08:30;42.20;18.00
32187;DHT22;18686;53.084;8.872;2023-04-03T13:11:02;42.20;17.70
32187;DHT22;18686;53.084;8.872;2023-04-03T13:13:31;42.20;17.70
32187;DHT22;18686;53.084;8.872;2023-04-03T13:15:59;41.50;18.20
32187;DHT22;18686;53.084;8.872;2023-04-03T13:18:30;42.00;18.00
32187;DHT22;18686;53.084;8.872;2023-04-03T13:21:03;42.10;18.10
32187;DHT22;18686;53.084;8.872;2023-04-03T13:23:35;42.60;18.10
32187;DHT22;18686;53.084;8.872;2023-04-03T13:26:04;41.50;18.10
32187;DHT22;18686;53.084;8.872;2023-04-03T13:28:34;39.30;19.20
32187;DHT22;18686;53.084;8.872;2023-04-03T13:31:07;36.50;18.90
32187;DHT22;18686;53.084;8.872;2023-04-03T13:33:37;33.50;19.40
32187;DHT22;18686;53.084;8.872;2023-04-03T13:36:15;31.90;19.70
32187;DHT22;18686;53.084;8.872;2023-04-03T13:38:45;32.60;20.00
32187;DHT22;18686;53.084;8.872;2023-04-03T13:41:31;33.20;19.80
32187;DHT22;18686;53.084;8.872;2023-04-03T13:44:16;34.60;19.40
32187;DHT22;18686;53.084;8.872;2023-04-03T13:46:44;36.30;19.20
32187;DHT22;18686;53.084;8.872;2023-04-03T13:49:30;37.20;19.00
32187;DHT22;18686;53.084;8.872;2023-04-03T13:52:03;37.40;19.40
32187;DHT22;18686;53.084;8.872;2023-04-03T13:54:48;36.50;19.00
32187;DHT22;18686;53.084;8.872;2023-04-03T13:57:19;34.60;19.30
32187;DHT22;18686;53.084;8.872;2023-04-03T13:59:47;32.10;20.60
32187;DHT22;18686;53.084;8.872;2023-04-03T14:02:20;29.70;21.20
32187;DHT22;18686;53.084;8.872;2023-04-03T14:04:52;27.40;22.70
32187;DHT22;18686;53.084;8.872;2023-04-03T14:07:24;25.60;22.50
32187;DHT22;18686;53.084;8.872;2023-04-03T14:09:53;23.90;24.00
32187;DHT22;18686;53.084;8.872;2023-04-03T14:12:27;22.40;25.00
32187;DHT22;18686;53.084;8.872;2023-04-03T14:14:59;21.00;27.10
32187;DHT22;18686;53.084;8.872;2023-04-03T14:17:29;20.10;28.00
32187;DHT22;18686;53.084;8.872;2023-04-03T14:19:59;19.30;27.20
32187;DHT22;18686;53.084;8.872;2023-04-03T14:22:31;18.80;27.00
32187;DHT22;18686;53.084;8.872;2023-04-03T14:25:00;18.20;28.20
32187;DHT22;18686;53.084;8.872;2023-04-03T14:27:32;17.70;27.40
32187;DHT22;18686;53.084;8.872;2023-04-03T14:30:01;17.20;27.80
32187;DHT22;18686;53.084;8.872;2023-04-03T14:32:30;17.00;28.50
32187;DHT22;18686;53.084;8.872;2023-04-03T14:34:59;16.50;28.90
32187;DHT22;18686;53.084;8.872;2023-04-03T14:37:30;16.20;29.50
32187;DHT22;18686;53.084;8.872;2023-04-03T14:40:00;15.90;30.30
32187;DHT22;18686;53.084;8.872;2023-04-03T14:42:30;15.50;31.90
32187;DHT22;18686;53.084;8.872;2023-04-03T14:44:59;15.20;32.50
32187;DHT22;18686;53.084;8.872;2023-04-03T14:47:30;15.00;31.90
32187;DHT22;18686;53.084;8.872;2023-04-03T14:49:59;14.80;31.70
32187;DHT22;18686;53.084;8.872;2023-04-03T14:52:32;14.70;31.90
32187;DHT22;18686;53.084;8.872;2023-04-03T14:55:02;14.60;32.90
32187;DHT22;18686;53.084;8.872;2023-04-03T14:57:30;14.50;32.60
32187;DHT22;18686;53.084;8.872;2023-04-03T14:59:59;14.30;31.70
32187;DHT22;18686;53.084;8.872;2023-04-03T15:02:31;14.10;32.80
32187;DHT22;18686;53.084;8.872;2023-04-03T15:05:02;14.00;33.00
32187;DHT22;18686;53.084;8.872;2023-04-03T15:07:34;13.80;35.20
32187;DHT22;18686;53.084;8.872;2023-04-03T15:10:14;13.70;34.80
32187;DHT22;18686;53.084;8.872;2023-04-03T15:12:43;13.50;33.60
32187;DHT22;18686;53.084;8.872;2023-04-03T15:15:12;13.40;33.20
32187;DHT22;18686;53.084;8.872;2023-04-03T15:17:41;13.40;34.30
32187;DHT22;18686;53.084;8.872;2023-04-03T15:20:13;13.40;35.60
32187;DHT22;18686;53.084;8.872;2023-04-03T15:22:42;13.40;37.60
32187;DHT22;18686;53.084;8.872;2023-04-03T15:25:11;13.40;36.10
32187;DHT22;18686;53.084;8.872;2023-04-03T15:27:40;13.40;34.90
32187;DHT22;18686;53.084;8.872;2023-04-03T15:30:13;13.30;37.00
32187;DHT22;18686;53.084;8.872;2023-04-03T15:32:42;13.20;35.70
32187;DHT22;18686;53.084;8.872;2023-04-03T15:35:10;13.00;34.40
32187;DHT22;18686;53.084;8.872;2023-04-03T15:37:39;12.90;35.80
32187;DHT22;18686;53.084;8.872;2023-04-03T15:40:09;12.70;36.90
32187;DHT22;18686;53.084;8.872;2023-04-03T15:42:38;12.60;36.60
32187;DHT22;18686;53.084;8.872;2023-04-03T15:45:07;12.40;35.90
32187;DHT22;18686;53.084;8.872;2023-04-03T15:47:36;12.30;36.50
32187;DHT22;18686;53.084;8.872;2023-04-03T15:50:05;12.00;37.10
32187;DHT22;18686;53.084;8.872;2023-04-03T15:52:35;11.90;36.80
32187;DHT22;18686;53.084;8.872;2023-04-03T15:55:03;11.80;37.00
32187;DHT22;18686;53.084;8.872;2023-04-03T15:57:34;11.70;36.40
32187;DHT22;18686;53.084;8.872;2023-04-03T16:00:08;11.50;36.70
32187;DHT22;18686;53.084;8.872;2023-04-03T16:02:36;11.40;37.00
32187;DHT22;18686;53.084;8.872;2023-04-03T16:05:05;11.20;36.90
32187;DHT22;18686;53.084;8.872;2023-04-03T16:07:33;11.20;39.60
32187;DHT22;18686;53.084;8.872;2023-04-03T16:10:02;11.20;41.00
32187;DHT22;18686;53.084;8.872;2023-04-03T16:12:31;11.20;41.30
32187;DHT22;18686;53.084;8.872;2023-04-03T16:15:00;11.20;43.80
32187;DHT22;18686;53.084;8.872;2023-04-03T16:17:28;11.20;40.70
32187;DHT22;18686;53.084;8.872;2023-04-03T16:19:57;11.10;40.20
32187;DHT22;18686;53.084;8.872;2023-04-03T16:22:27;10.90;39.10